sensor_id;sensor_type;location;lat;lon;timestamp;P1;durP1;ratioP1;P2;durP2;ratioP2
18905;SDS011;9585;51.018;4.282;2024-02-26T00:01:42;1.95;;;1.20;;
18905;SDS011;9585;51.018;4.282;2024-02-26T00:04:12;1.60;;;1.30;;
18905;SDS011;9585;51.018;4.282;2024-02-26T00:06:39;2.28;;;1.30;;
18905;SDS011;9585;51.018;4.282;2024-02-26T00:09:07;3.28;;;1.30;;
18905;SDS011;9585;51.018;4.282;2024-02-26T00:11:36;2.47;;;1.48;;
18905;SDS011;9585;51.018;4.282;2024-02-26T00:14:04;3.63;;;1.50;;
18905;SDS011;9585;51.018;4.282;2024-02-26T00:16:32;1.50;;;1.20;;
18905;SDS011;9585;51.018;4.282;2024-02-26T00:19:00;1.77;;;1.52;;
18905;SDS011;9585;51.018;4.282;2024-02-26T00:21:29;2.08;;;1.42;;
18905;SDS011;9585;51.018;4.282;2024-02-26T00:23:57;2.28;;;1.60;;
18905;SDS011;9585;51.018;4.282;2024-02-26T00:26:24;2.35;;;1.67;;
18905;SDS011;9585;51.018;4.282;2024-02-26T00:28:52;2.88;;;1.60;;
18905;SDS011;9585;51.018;4.282;2024-02-26T00:31:20;2.38;;;1.50;;
18905;SDS011;9585;51.018;4.282;2024-02-26T00:33:48;2.45;;;1.60;;
18905;SDS011;9585;51.018;4.282;2024-02-26T00:36:16;1.80;;;1.60;;
18905;SDS011;9585;51.018;4.282;2024-02-26T00:38:45;1.63;;;1.52;;
18905;SDS011;9585;51.018;4.282;2024-02-26T00:41:16;2.35;;;1.50;;
18905;SDS011;9585;51.018;4.282;2024-02-26T00:43:44;2.88;;;1.60;;
18905;SDS011;9585;51.018;4.282;2024-02-26T00:46:11;2.20;;;1.55;;
18905;SDS011;9585;51.018;4.282;2024-02-26T00:48:39;1.90;;;1.55;;
18905;SDS011;9585;51.018;4.282;2024-02-26T00:54:03;3.08;;;1.30;;
18905;SDS011;9585;51.018;4.282;2024-02-26T00:56:31;2.80;;;1.40;;
18905;SDS011;9585;51.018;4.282;2024-02-26T00:58:59;2.67;;;1.40;;
18905;SDS011;9585;51.018;4.282;2024-02-26T01:01:26;2.42;;;1.40;;
18905;SDS011;9585;51.018;4.282;2024-02-26T01:03:57;1.58;;;1.20;;
18905;SDS011;9585;51.018;4.282;2024-02-26T01:06:25;2.38;;;1.50;;
18905;SDS011;9585;51.018;4.282;2024-02-26T01:08:53;2.38;;;1.33;;
18905;SDS011;9585;51.018;4.282;2024-02-26T01:11:23;3.45;;;1.20;;
18905;SDS011;9585;51.018;4.282;2024-02-26T01:13:51;1.95;;;1.35;;
18905;SDS011;9585;51.018;4.282;2024-02-26T01:16:22;2.45;;;1.30;;
18905;SDS011;9585;51.018;4.282;2024-02-26T01:18:49;1.40;;;1.23;;
18905;SDS011;9585;51.018;4.282;2024-02-26T01:21:39;1.80;;;1.08;;
18905;SDS011;9585;51.018;4.282;2024-02-26T01:24:11;1.63;;;1.20;;
18905;SDS011;9585;51.018;4.282;2024-02-26T01:26:40;1.45;;;1.30;;
18905;SDS011;9585;51.018;4.282;2024-02-26T01:29:08;3.40;;;1.27;;
18905;SDS011;9585;51.018;4.282;2024-02-26T01:31:36;3.08;;;1.30;;
18905;SDS011;9585;51.018;4.282;2024-02-26T01:34:04;3.13;;;1.30;;
18905;SDS011;9585;51.018;4.282;2024-02-26T01:36:32;4.72;;;1.65;;
18905;SDS011;9585;51.018;4.282;2024-02-26T01:39:01;1.92;;;1.33;;
18905;SDS011;9585;51.018;4.282;2024-02-26T01:41:30;2.88;;;1.50;;
18905;SDS011;9585;51.018;4.282;2024-02-26T01:44:00;2.75;;;1.40;;
18905;SDS011;9585;51.018;4.282;2024-02-26T01:46:27;1.85;;;1.40;;
18905;SDS011;9585;51.018;4.282;2024-02-26T01:48:57;2.05;;;1.40;;
18905;SDS011;9585;51.018;4.282;2024-02-26T01:51:24;2.10;;;1.42;;
18905;SDS011;9585;51.018;4.282;2024-02-26T01:53:52;1.45;;;1.35;;
18905;SDS011;9585;51.018;4.282;2024-02-26T01:56:21;2.83;;;1.67;;
18905;SDS011;9585;51.018;4.282;2024-02-26T01:58:53;2.38;;;1.40;;
18905;SDS011;9585;51.018;4.282;2024-02-26T02:01:24;3.22;;;1.58;;
18905;SDS011;9585;51.018;4.282;2024-02-26T02:03:53;1.80;;;1.30;;
18905;SDS011;9585;51.018;4.282;2024-02-26T02:06:23;2.63;;;1.58;;
18905;SDS011;9585;51.018;4.282;2024-02-26T02:08:50;2.17;;;1.48;;
18905;SDS011;9585;51.018;4.282;2024-02-26T02:11:19;2.03;;;1.45;;
18905;SDS011;9585;51.018;4.282;2024-02-26T02:13:47;3.35;;;1.65;;
18905;SDS011;9585;51.018;4.282;2024-02-26T02:16:15;2.25;;;1.33;;
18905;SDS011;9585;51.018;4.282;2024-02-26T02:18:44;3.47;;;1.65;;
18905;SDS011;9585;51.018;4.282;2024-02-26T02:21:13;2.97;;;1.60;;
18905;SDS011;9585;51.018;4.282;2024-02-26T02:23:41;2.72;;;1.58;;
18905;SDS011;9585;51.018;4.282;2024-02-26T02:26:12;2.83;;;1.48;;
18905;SDS011;9585;51.018;4.282;2024-02-26T02:28:40;3.45;;;1.80;;
18905;SDS011;9585;51.018;4.282;2024-02-26T02:31:07;2.55;;;1.88;;
18905;SDS011;9585;51.018;4.282;2024-02-26T02:33:35;2.17;;;1.63;;
18905;SDS011;9585;51.018;4.282;2024-02-26T02:36:04;3.47;;;1.50;;
18905;SDS011;9585;51.018;4.282;2024-02-26T02:38:36;2.20;;;1.65;;
18905;SDS011;9585;51.018;4.282;2024-02-26T02:41:04;3.50;;;1.70;;
18905;SDS011;9585;51.018;4.282;2024-02-26T02:43:32;2.88;;;1.77;;
18905;SDS011;9585;51.018;4.282;2024-02-26T02:45:59;3.72;;;2.10;;
18905;SDS011;9585;51.018;4.282;2024-02-26T02:48:28;2.58;;;2.30;;
18905;SDS011;9585;51.018;4.282;2024-02-26T02:50:55;1.85;;;1.75;;
18905;SDS011;9585;51.018;4.282;2024-02-26T02:53:23;2.25;;;2.05;;
18905;SDS011;9585;51.018;4.282;2024-02-26T02:55:52;2.75;;;2.08;;
18905;SDS011;9585;51.018;4.282;2024-02-26T02:58:20;3.33;;;2.38;;
18905;SDS011;9585;51.018;4.282;2024-02-26T03:00:48;2.80;;;2.60;;
18905;SDS011;9585;51.018;4.282;2024-02-26T03:03:15;4.00;;;2.53;;
18905;SDS011;9585;51.018;4.282;2024-02-26T03:05:43;4.05;;;2.67;;
18905;SDS011;9585;51.018;4.282;2024-02-26T03:08:11;2.80;;;2.50;;
18905;SDS011;9585;51.018;4.282;2024-02-26T03:10:38;3.50;;;2.72;;
18905;SDS011;9585;51.018;4.282;2024-02-26T03:13:09;4.30;;;2.80;;
18905;SDS011;9585;51.018;4.282;2024-02-26T03:15:37;3.53;;;2.70;;
18905;SDS011;9585;51.018;4.282;2024-02-26T03:18:05;4.13;;;2.88;;
18905;SDS011;9585;51.018;4.282;2024-02-26T03:20:33;5.18;;;2.70;;
18905;SDS011;9585;51.018;4.282;2024-02-26T03:23:01;4.95;;;3.05;;
18905;SDS011;9585;51.018;4.282;2024-02-26T03:25:28;3.00;;;2.70;;
18905;SDS011;9585;51.018;4.282;2024-02-26T03:27:56;3.40;;;3.03;;
18905;SDS011;9585;51.018;4.282;2024-02-26T03:30:40;4.57;;;2.97;;
18905;SDS011;9585;51.018;4.282;2024-02-26T03:33:08;4.80;;;3.17;;
18905;SDS011;9585;51.018;4.282;2024-02-26T03:35:36;4.43;;;3.10;;
18905;SDS011;9585;51.018;4.282;2024-02-26T03:38:04;3.58;;;3.20;;
18905;SDS011;9585;51.018;4.282;2024-02-26T03:40:32;3.92;;;3.40;;
18905;SDS011;9585;51.018;4.282;2024-02-26T03:43:00;3.40;;;3.10;;
18905;SDS011;9585;51.018;4.282;2024-02-26T03:45:28;4.38;;;3.50;;
18905;SDS011;9585;51.018;4.282;2024-02-26T03:47:57;3.92;;;3.50;;
18905;SDS011;9585;51.018;4.282;2024-02-26T03:50:25;4.18;;;3.42;;
18905;SDS011;9585;51.018;4.282;2024-02-26T03:52:52;4.88;;;4.43;;
18905;SDS011;9585;51.018;4.282;2024-02-26T03:55:22;5.45;;;4.05;;
18905;SDS011;9585;51.018;4.282;2024-02-26T03:57:51;4.47;;;3.78;;
18905;SDS011;9585;51.018;4.282;2024-02-26T04:00:19;4.55;;;4.15;;
18905;SDS011;9585;51.018;4.282;2024-02-26T04:02:47;5.00;;;4.38;;
18905;SDS011;9585;51.018;4.282;2024-02-26T04:05:18;5.80;;;4.40;;
18905;SDS011;9585;51.018;4.282;2024-02-26T04:07:47;6.18;;;4.40;;
18905;SDS011;9585;51.018;4.282;2024-02-26T04:10:14;6.05;;;5.10;;
18905;SDS011;9585;51.018;4.282;2024-02-26T04:12:42;6.38;;;4.85;;
18905;SDS011;9585;51.018;4.282;2024-02-26T04:15:11;6.07;;;5.20;;
18905;SDS011;9585;51.018;4.282;2024-02-26T04:17:39;7.25;;;5.50;;
18905;SDS011;9585;51.018;4.282;2024-02-26T04:20:12;6.80;;;5.47;;
18905;SDS011;9585;51.018;4.282;2024-02-26T04:22:42;6.55;;;5.80;;
18905;SDS011;9585;51.018;4.282;2024-02-26T04:25:10;6.53;;;5.53;;
18905;SDS011;9585;51.018;4.282;2024-02-26T04:27:39;9.00;;;6.18;;
18905;SDS011;9585;51.018;4.282;2024-02-26T04:30:07;8.10;;;6.00;;
18905;SDS011;9585;51.018;4.282;2024-02-26T04:32:35;8.63;;;6.07;;
18905;SDS011;9585;51.018;4.282;2024-02-26T04:35:03;7.45;;;6.68;;
18905;SDS011;9585;51.018;4.282;2024-02-26T04:37:31;6.82;;;6.07;;
18905;SDS011;9585;51.018;4.282;2024-02-26T04:40:01;7.90;;;6.13;;
18905;SDS011;9585;51.018;4.282;2024-02-26T04:42:30;8.70;;;6.32;;
18905;SDS011;9585;51.018;4.282;2024-02-26T04:44:58;7.40;;;6.50;;
18905;SDS011;9585;51.018;4.282;2024-02-26T04:54:09;7.90;;;6.40;;
18905;SDS011;9585;51.018;4.282;2024-02-26T04:56:41;8.45;;;6.40;;
18905;SDS011;9585;51.018;4.282;2024-02-26T04:59:09;7.00;;;6.30;;
18905;SDS011;9585;51.018;4.282;2024-02-26T05:01:39;7.40;;;6.57;;
18905;SDS011;9585;51.018;4.282;2024-02-26T05:04:06;7.55;;;6.85;;
18905;SDS011;9585;51.018;4.282;2024-02-26T05:06:36;8.38;;;6.57;;
18905;SDS011;9585;51.018;4.282;2024-02-26T05:09:04;7.38;;;6.45;;
18905;SDS011;9585;51.018;4.282;2024-02-26T05:11:31;6.50;;;5.90;;
18905;SDS011;9585;51.018;4.282;2024-02-26T05:14:02;8.43;;;6.57;;
18905;SDS011;9585;51.018;4.282;2024-02-26T05:16:30;6.90;;;6.20;;
18905;SDS011;9585;51.018;4.282;2024-02-26T05:18:58;7.23;;;6.20;;
18905;SDS011;9585;51.018;4.282;2024-02-26T05:21:25;7.47;;;6.05;;
18905;SDS011;9585;51.018;4.282;2024-02-26T05:23:53;8.10;;;6.90;;
18905;SDS011;9585;51.018;4.282;2024-02-26T05:26:21;6.93;;;6.22;;
18905;SDS011;9585;51.018;4.282;2024-02-26T05:28:49;7.25;;;5.80;;
18905;SDS011;9585;51.018;4.282;2024-02-26T05:31:19;8.27;;;5.88;;
18905;SDS011;9585;51.018;4.282;2024-02-26T05:33:46;7.03;;;5.90;;
18905;SDS011;9585;51.018;4.282;2024-02-26T05:36:17;6.07;;;5.47;;
18905;SDS011;9585;51.018;4.282;2024-02-26T05:38:47;5.93;;;5.32;;
18905;SDS011;9585;51.018;4.282;2024-02-26T05:41:15;5.78;;;5.28;;
18905;SDS011;9585;51.018;4.282;2024-02-26T05:43:48;5.65;;;5.05;;
18905;SDS011;9585;51.018;4.282;2024-02-26T05:46:16;6.15;;;5.03;;
18905;SDS011;9585;51.018;4.282;2024-02-26T05:48:46;5.70;;;5.10;;
18905;SDS011;9585;51.018;4.282;2024-02-26T05:51:14;5.68;;;4.93;;
18905;SDS011;9585;51.018;4.282;2024-02-26T05:53:42;5.10;;;4.60;;
18905;SDS011;9585;51.018;4.282;2024-02-26T05:56:10;5.63;;;4.70;;
18905;SDS011;9585;51.018;4.282;2024-02-26T05:58:38;5.57;;;5.07;;
18905;SDS011;9585;51.018;4.282;2024-02-26T06:01:05;5.18;;;4.75;;
18905;SDS011;9585;51.018;4.282;2024-02-26T06:03:33;5.18;;;4.68;;
18905;SDS011;9585;51.018;4.282;2024-02-26T06:06:03;4.93;;;4.43;;
18905;SDS011;9585;51.018;4.282;2024-02-26T06:08:31;5.93;;;5.13;;
18905;SDS011;9585;51.018;4.282;2024-02-26T06:10:58;6.75;;;5.47;;
18905;SDS011;9585;51.018;4.282;2024-02-26T06:13:26;5.93;;;5.10;;
18905;SDS011;9585;51.018;4.282;2024-02-26T06:15:54;5.55;;;5.03;;
18905;SDS011;9585;51.018;4.282;2024-02-26T06:18:21;6.10;;;5.50;;
18905;SDS011;9585;51.018;4.282;2024-02-26T06:20:49;5.57;;;5.07;;
18905;SDS011;9585;51.018;4.282;2024-02-26T06:23:19;6.05;;;5.55;;
18905;SDS011;9585;51.018;4.282;2024-02-26T06:25:46;6.53;;;5.63;;
18905;SDS011;9585;51.018;4.282;2024-02-26T06:28:14;6.20;;;5.60;;
18905;SDS011;9585;51.018;4.282;2024-02-26T06:30:41;5.50;;;5.00;;
18905;SDS011;9585;51.018;4.282;2024-02-26T06:33:10;6.00;;;5.38;;
18905;SDS011;9585;51.018;4.282;2024-02-26T06:35:38;6.40;;;4.95;;
18905;SDS011;9585;51.018;4.282;2024-02-26T06:38:07;6.28;;;5.68;;
18905;SDS011;9585;51.018;4.282;2024-02-26T06:43:24;6.03;;;5.50;;
18905;SDS011;9585;51.018;4.282;2024-02-26T06:45:52;6.22;;;5.63;;
18905;SDS011;9585;51.018;4.282;2024-02-26T06:48:19;6.18;;;5.60;;
18905;SDS011;9585;51.018;4.282;2024-02-26T06:50:47;6.60;;;5.90;;
18905;SDS011;9585;51.018;4.282;2024-02-26T06:53:18;6.60;;;6.00;;
18905;SDS011;9585;51.018;4.282;2024-02-26T06:55:45;6.55;;;5.95;;
18905;SDS011;9585;51.018;4.282;2024-02-26T06:58:16;7.10;;;6.40;;
18905;SDS011;9585;51.018;4.282;2024-02-26T07:00:44;7.22;;;6.53;;
18905;SDS011;9585;51.018;4.282;2024-02-26T07:03:12;7.18;;;6.53;;
18905;SDS011;9585;51.018;4.282;2024-02-26T07:05:40;6.82;;;6.22;;
18905;SDS011;9585;51.018;4.282;2024-02-26T07:08:09;7.05;;;6.40;;
18905;SDS011;9585;51.018;4.282;2024-02-26T07:10:37;6.18;;;5.60;;
18905;SDS011;9585;51.018;4.282;2024-02-26T07:13:13;6.57;;;5.88;;
18905;SDS011;9585;51.018;4.282;2024-02-26T07:15:46;6.35;;;5.78;;
18905;SDS011;9585;51.018;4.282;2024-02-26T07:18:13;6.43;;;5.70;;
18905;SDS011;9585;51.018;4.282;2024-02-26T07:20:41;6.38;;;5.78;;
18905;SDS011;9585;51.018;4.282;2024-02-26T07:23:09;8.05;;;6.00;;
18905;SDS011;9585;51.018;4.282;2024-02-26T07:25:38;6.10;;;5.30;;
18905;SDS011;9585;51.018;4.282;2024-02-26T07:28:06;6.30;;;5.80;;
18905;SDS011;9585;51.018;4.282;2024-02-26T07:30:35;6.07;;;5.53;;
18905;SDS011;9585;51.018;4.282;2024-02-26T07:33:03;5.63;;;5.13;;
18905;SDS011;9585;51.018;4.282;2024-02-26T07:35:31;5.75;;;5.22;;
18905;SDS011;9585;51.018;4.282;2024-02-26T07:37:59;6.75;;;5.88;;
18905;SDS011;9585;51.018;4.282;2024-02-26T07:40:26;6.15;;;5.60;;
18905;SDS011;9585;51.018;4.282;2024-02-26T07:42:58;6.00;;;5.40;;
18905;SDS011;9585;51.018;4.282;2024-02-26T07:45:29;7.00;;;6.30;;
18905;SDS011;9585;51.018;4.282;2024-02-26T07:47:59;5.57;;;5.07;;
18905;SDS011;9585;51.018;4.282;2024-02-26T07:50:33;5.82;;;5.32;;
18905;SDS011;9585;51.018;4.282;2024-02-26T07:53:00;7.93;;;5.28;;
18905;SDS011;9585;51.018;4.282;2024-02-26T07:55:28;5.90;;;5.40;;
18905;SDS011;9585;51.018;4.282;2024-02-26T07:57:59;5.75;;;5.18;;
18905;SDS011;9585;51.018;4.282;2024-02-26T08:00:29;6.38;;;5.40;;
18905;SDS011;9585;51.018;4.282;2024-02-26T08:02:57;6.57;;;5.95;;
18905;SDS011;9585;51.018;4.282;2024-02-26T08:08:31;5.47;;;5.00;;
18905;SDS011;9585;51.018;4.282;2024-02-26T08:11:03;5.60;;;5.10;;
18905;SDS011;9585;51.018;4.282;2024-02-26T08:13:39;5.88;;;5.00;;
18905;SDS011;9585;51.018;4.282;2024-02-26T08:16:19;6.10;;;5.32;;
18905;SDS011;9585;51.018;4.282;2024-02-26T08:18:48;6.00;;;5.50;;
18905;SDS011;9585;51.018;4.282;2024-02-26T08:21:16;6.28;;;5.68;;
18905;SDS011;9585;51.018;4.282;2024-02-26T08:23:43;6.00;;;5.50;;
18905;SDS011;9585;51.018;4.282;2024-02-26T08:26:11;18.42;;;15.80;;
18905;SDS011;9585;51.018;4.282;2024-02-26T08:28:41;6.53;;;5.15;;
18905;SDS011;9585;51.018;4.282;2024-02-26T08:31:10;5.53;;;5.03;;
18905;SDS011;9585;51.018;4.282;2024-02-26T08:33:38;6.28;;;5.38;;
18905;SDS011;9585;51.018;4.282;2024-02-26T08:36:28;5.78;;;4.72;;
18905;SDS011;9585;51.018;4.282;2024-02-26T08:39:15;6.28;;;5.68;;
18905;SDS011;9585;51.018;4.282;2024-02-26T08:47:44;6.72;;;6.00;;
18905;SDS011;9585;51.018;4.282;2024-02-26T08:50:14;6.22;;;5.47;;
18905;SDS011;9585;51.018;4.282;2024-02-26T08:52:41;7.72;;;5.95;;
18905;SDS011;9585;51.018;4.282;2024-02-26T08:55:09;6.93;;;6.27;;
18905;SDS011;9585;51.018;4.282;2024-02-26T08:57:38;6.43;;;5.78;;
18905;SDS011;9585;51.018;4.282;2024-02-26T09:00:08;6.77;;;6.07;;
18905;SDS011;9585;51.018;4.282;2024-02-26T09:02:36;7.00;;;6.32;;
18905;SDS011;9585;51.018;4.282;2024-02-26T09:05:04;6.95;;;6.25;;
18905;SDS011;9585;51.018;4.282;2024-02-26T09:07:34;7.37;;;6.30;;
18905;SDS011;9585;51.018;4.282;2024-02-26T09:10:03;6.90;;;6.20;;
18905;SDS011;9585;51.018;4.282;2024-02-26T09:12:33;7.05;;;6.18;;
18905;SDS011;9585;51.018;4.282;2024-02-26T09:15:01;7.32;;;6.00;;
18905;SDS011;9585;51.018;4.282;2024-02-26T09:17:34;6.35;;;5.75;;
18905;SDS011;9585;51.018;4.282;2024-02-26T09:20:02;7.18;;;5.97;;
18905;SDS011;9585;51.018;4.282;2024-02-26T09:22:38;6.53;;;5.35;;
18905;SDS011;9585;51.018;4.282;2024-02-26T09:25:11;6.32;;;5.43;;
18905;SDS011;9585;51.018;4.282;2024-02-26T09:27:42;5.68;;;5.18;;
18905;SDS011;9585;51.018;4.282;2024-02-26T09:30:10;5.90;;;5.30;;
18905;SDS011;9585;51.018;4.282;2024-02-26T09:32:39;6.63;;;5.90;;
18905;SDS011;9585;51.018;4.282;2024-02-26T09:35:06;6.23;;;5.63;;
18905;SDS011;9585;51.018;4.282;2024-02-26T09:37:34;6.55;;;6.00;;
18905;SDS011;9585;51.018;4.282;2024-02-26T09:40:04;6.20;;;5.63;;
18905;SDS011;9585;51.018;4.282;2024-02-26T09:42:32;5.93;;;5.40;;
18905;SDS011;9585;51.018;4.282;2024-02-26T09:45:02;7.25;;;5.35;;
18905;SDS011;9585;51.018;4.282;2024-02-26T09:47:37;6.28;;;5.68;;
18905;SDS011;9585;51.018;4.282;2024-02-26T09:50:05;6.35;;;5.75;;
18905;SDS011;9585;51.018;4.282;2024-02-26T09:52:37;5.97;;;5.38;;
18905;SDS011;9585;51.018;4.282;2024-02-26T09:55:08;6.00;;;5.43;;
18905;SDS011;9585;51.018;4.282;2024-02-26T09:57:36;6.07;;;5.32;;
18905;SDS011;9585;51.018;4.282;2024-02-26T10:00:07;5.25;;;4.78;;
18905;SDS011;9585;51.018;4.282;2024-02-26T10:02:37;5.28;;;4.78;;
18905;SDS011;9585;51.018;4.282;2024-02-26T10:05:05;5.57;;;5.07;;
18905;SDS011;9585;51.018;4.282;2024-02-26T10:07:36;5.70;;;5.20;;
18905;SDS011;9585;51.018;4.282;2024-02-26T10:10:04;6.05;;;5.55;;
18905;SDS011;9585;51.018;4.282;2024-02-26T10:12:34;6.20;;;5.70;;
18905;SDS011;9585;51.018;4.282;2024-02-26T10:15:02;6.72;;;6.13;;
18905;SDS011;9585;51.018;4.282;2024-02-26T10:17:31;6.70;;;6.00;;
18905;SDS011;9585;51.018;4.282;2024-02-26T10:20:10;6.32;;;5.72;;
18905;SDS011;9585;51.018;4.282;2024-02-26T10:22:40;6.75;;;6.05;;
18905;SDS011;9585;51.018;4.282;2024-02-26T10:25:08;6.93;;;6.30;;
18905;SDS011;9585;51.018;4.282;2024-02-26T10:27:38;5.95;;;5.38;;
18905;SDS011;9585;51.018;4.282;2024-02-26T10:30:15;6.50;;;5.80;;
18905;SDS011;9585;51.018;4.282;2024-02-26T10:32:44;5.90;;;5.40;;
18905;SDS011;9585;51.018;4.282;2024-02-26T10:35:13;7.15;;;5.43;;
18905;SDS011;9585;51.018;4.282;2024-02-26T10:37:40;5.40;;;4.90;;
18905;SDS011;9585;51.018;4.282;2024-02-26T10:40:09;5.40;;;4.90;;
18905;SDS011;9585;51.018;4.282;2024-02-26T10:42:39;5.65;;;5.05;;
18905;SDS011;9585;51.018;4.282;2024-02-26T10:45:07;5.80;;;5.20;;
18905;SDS011;9585;51.018;4.282;2024-02-26T10:47:36;6.00;;;5.15;;
18905;SDS011;9585;51.018;4.282;2024-02-26T10:50:04;5.72;;;5.13;;
18905;SDS011;9585;51.018;4.282;2024-02-26T10:52:33;6.85;;;5.53;;
18905;SDS011;9585;51.018;4.282;2024-02-26T10:55:02;6.10;;;5.50;;
18905;SDS011;9585;51.018;4.282;2024-02-26T10:57:31;6.22;;;5.63;;
18905;SDS011;9585;51.018;4.282;2024-02-26T11:00:05;5.65;;;5.15;;
18905;SDS011;9585;51.018;4.282;2024-02-26T11:02:36;6.68;;;6.07;;
18905;SDS011;9585;51.018;4.282;2024-02-26T11:05:04;5.70;;;5.20;;
18905;SDS011;9585;51.018;4.282;2024-02-26T11:07:33;5.85;;;5.35;;
18905;SDS011;9585;51.018;4.282;2024-02-26T11:10:02;6.70;;;5.30;;
18905;SDS011;9585;51.018;4.282;2024-02-26T11:12:31;5.80;;;5.20;;
18905;SDS011;9585;51.018;4.282;2024-02-26T11:15:04;6.95;;;5.22;;
18905;SDS011;9585;51.018;4.282;2024-02-26T11:17:32;5.55;;;5.05;;
18905;SDS011;9585;51.018;4.282;2024-02-26T11:20:01;5.97;;;5.47;;
18905;SDS011;9585;51.018;4.282;2024-02-26T11:22:29;6.03;;;5.45;;
18905;SDS011;9585;51.018;4.282;2024-02-26T11:24:57;6.30;;;5.70;;
18905;SDS011;9585;51.018;4.282;2024-02-26T11:27:26;6.15;;;5.55;;
18905;SDS011;9585;51.018;4.282;2024-02-26T11:29:57;6.15;;;5.55;;
18905;SDS011;9585;51.018;4.282;2024-02-26T11:32:29;5.80;;;5.30;;
18905;SDS011;9585;51.018;4.282;2024-02-26T11:34:57;5.65;;;5.15;;
18905;SDS011;9585;51.018;4.282;2024-02-26T11:37:25;5.72;;;5.22;;
18905;SDS011;9585;51.018;4.282;2024-02-26T11:39:53;5.57;;;4.85;;
18905;SDS011;9585;51.018;4.282;2024-02-26T11:42:23;4.90;;;4.47;;
18905;SDS011;9585;51.018;4.282;2024-02-26T11:44:55;6.27;;;5.27;;
18905;SDS011;9585;51.018;4.282;2024-02-26T11:47:26;6.88;;;5.35;;
18905;SDS011;9585;51.018;4.282;2024-02-26T11:49:56;5.88;;;5.28;;
18905;SDS011;9585;51.018;4.282;2024-02-26T11:52:23;6.05;;;5.45;;
18905;SDS011;9585;51.018;4.282;2024-02-26T11:54:51;5.47;;;4.97;;
18905;SDS011;9585;51.018;4.282;2024-02-26T11:57:26;5.22;;;4.72;;
18905;SDS011;9585;51.018;4.282;2024-02-26T11:59:54;4.90;;;4.50;;
18905;SDS011;9585;51.018;4.282;2024-02-26T12:02:44;4.47;;;4.07;;
18905;SDS011;9585;51.018;4.282;2024-02-26T12:05:14;5.03;;;4.47;;
18905;SDS011;9585;51.018;4.282;2024-02-26T12:07:43;5.07;;;4.35;;
18905;SDS011;9585;51.018;4.282;2024-02-26T12:10:13;4.53;;;4.13;;
18905;SDS011;9585;51.018;4.282;2024-02-26T12:12:42;4.93;;;3.95;;
18905;SDS011;9585;51.018;4.282;2024-02-26T12:15:11;4.18;;;3.78;;
18905;SDS011;9585;51.018;4.282;2024-02-26T12:17:49;4.40;;;4.00;;
18905;SDS011;9585;51.018;4.282;2024-02-26T12:20:18;4.83;;;4.40;;
18905;SDS011;9585;51.018;4.282;2024-02-26T12:22:46;5.10;;;4.25;;
18905;SDS011;9585;51.018;4.282;2024-02-26T12:25:17;5.00;;;4.50;;
18905;SDS011;9585;51.018;4.282;2024-02-26T12:27:50;5.43;;;4.93;;
18905;SDS011;9585;51.018;4.282;2024-02-26T12:30:17;5.30;;;4.60;;
18905;SDS011;9585;51.018;4.282;2024-02-26T12:32:45;5.55;;;4.95;;
18905;SDS011;9585;51.018;4.282;2024-02-26T12:35:16;5.18;;;4.68;;
18905;SDS011;9585;51.018;4.282;2024-02-26T12:37:44;5.35;;;4.75;;
18905;SDS011;9585;51.018;4.282;2024-02-26T12:40:13;5.88;;;5.28;;
18905;SDS011;9585;51.018;4.282;2024-02-26T12:42:41;6.03;;;5.22;;
18905;SDS011;9585;51.018;4.282;2024-02-26T12:45:09;5.93;;;5.32;;
18905;SDS011;9585;51.018;4.282;2024-02-26T12:47:37;6.45;;;5.68;;
18905;SDS011;9585;51.018;4.282;2024-02-26T12:50:06;6.32;;;5.47;;
18905;SDS011;9585;51.018;4.282;2024-02-26T12:52:37;6.60;;;5.50;;
18905;SDS011;9585;51.018;4.282;2024-02-26T12:55:06;5.90;;;5.30;;
18905;SDS011;9585;51.018;4.282;2024-02-26T12:57:35;6.10;;;5.13;;
18905;SDS011;9585;51.018;4.282;2024-02-26T13:00:05;5.60;;;5.00;;
18905;SDS011;9585;51.018;4.282;2024-02-26T13:02:34;6.10;;;5.50;;
18905;SDS011;9585;51.018;4.282;2024-02-26T13:05:03;6.13;;;5.20;;
18905;SDS011;9585;51.018;4.282;2024-02-26T13:07:32;6.90;;;5.38;;
18905;SDS011;9585;51.018;4.282;2024-02-26T13:10:02;6.35;;;5.57;;
18905;SDS011;9585;51.018;4.282;2024-02-26T13:12:30;6.18;;;5.57;;
18905;SDS011;9585;51.018;4.282;2024-02-26T13:14:59;7.13;;;5.75;;
18905;SDS011;9585;51.018;4.282;2024-02-26T13:17:27;7.10;;;6.20;;
18905;SDS011;9585;51.018;4.282;2024-02-26T13:19:58;6.90;;;6.18;;
18905;SDS011;9585;51.018;4.282;2024-02-26T13:22:25;6.57;;;5.50;;
18905;SDS011;9585;51.018;4.282;2024-02-26T13:24:55;6.15;;;5.55;;
18905;SDS011;9585;51.018;4.282;2024-02-26T13:27:25;6.78;;;5.70;;
18905;SDS011;9585;51.018;4.282;2024-02-26T13:30:03;6.82;;;5.95;;
18905;SDS011;9585;51.018;4.282;2024-02-26T13:32:33;6.28;;;5.57;;
18905;SDS011;9585;51.018;4.282;2024-02-26T13:35:04;6.23;;;5.63;;
18905;SDS011;9585;51.018;4.282;2024-02-26T13:37:33;6.68;;;5.95;;
18905;SDS011;9585;51.018;4.282;2024-02-26T13:40:00;6.43;;;5.75;;
18905;SDS011;9585;51.018;4.282;2024-02-26T13:42:33;6.25;;;5.57;;
18905;SDS011;9585;51.018;4.282;2024-02-26T13:45:00;6.37;;;5.47;;
18905;SDS011;9585;51.018;4.282;2024-02-26T13:47:28;7.43;;;5.50;;
18905;SDS011;9585;51.018;4.282;2024-02-26T13:49:56;6.83;;;5.33;;
18905;SDS011;9585;51.018;4.282;2024-02-26T13:52:23;5.82;;;4.90;;
18905;SDS011;9585;51.018;4.282;2024-02-26T13:54:51;6.05;;;4.82;;
18905;SDS011;9585;51.018;4.282;2024-02-26T13:57:19;5.50;;;4.90;;
18905;SDS011;9585;51.018;4.282;2024-02-26T13:59:49;5.80;;;5.20;;
18905;SDS011;9585;51.018;4.282;2024-02-26T14:02:17;7.22;;;5.30;;
18905;SDS011;9585;51.018;4.282;2024-02-26T14:04:45;6.68;;;5.38;;
18905;SDS011;9585;51.018;4.282;2024-02-26T14:07:13;7.15;;;4.97;;
18905;SDS011;9585;51.018;4.282;2024-02-26T14:09:42;5.97;;;4.95;;
18905;SDS011;9585;51.018;4.282;2024-02-26T14:12:11;6.63;;;5.50;;
18905;SDS011;9585;51.018;4.282;2024-02-26T14:14:38;5.88;;;5.20;;
18905;SDS011;9585;51.018;4.282;2024-02-26T14:17:09;6.65;;;5.75;;
18905;SDS011;9585;51.018;4.282;2024-02-26T14:19:38;6.13;;;5.30;;
18905;SDS011;9585;51.018;4.282;2024-02-26T14:22:10;6.80;;;5.32;;
18905;SDS011;9585;51.018;4.282;2024-02-26T14:24:38;6.10;;;5.50;;
18905;SDS011;9585;51.018;4.282;2024-02-26T14:27:06;6.07;;;4.70;;
18905;SDS011;9585;51.018;4.282;2024-02-26T14:29:36;5.40;;;4.70;;
18905;SDS011;9585;51.018;4.282;2024-02-26T14:32:05;4.73;;;4.23;;
18905;SDS011;9585;51.018;4.282;2024-02-26T14:34:34;5.07;;;4.57;;
18905;SDS011;9585;51.018;4.282;2024-02-26T14:37:01;6.05;;;5.05;;
18905;SDS011;9585;51.018;4.282;2024-02-26T14:39:29;7.10;;;5.47;;
18905;SDS011;9585;51.018;4.282;2024-02-26T14:41:57;5.68;;;5.05;;
18905;SDS011;9585;51.018;4.282;2024-02-26T14:44:25;6.28;;;5.07;;
18905;SDS011;9585;51.018;4.282;2024-02-26T14:46:53;6.40;;;5.75;;
18905;SDS011;9585;51.018;4.282;2024-02-26T14:49:20;7.10;;;6.05;;
18905;SDS011;9585;51.018;4.282;2024-02-26T14:51:50;7.25;;;6.10;;
18905;SDS011;9585;51.018;4.282;2024-02-26T14:54:17;8.60;;;7.70;;
18905;SDS011;9585;51.018;4.282;2024-02-26T14:56:45;7.70;;;6.20;;
18905;SDS011;9585;51.018;4.282;2024-02-26T14:59:13;5.82;;;5.22;;
18905;SDS011;9585;51.018;4.282;2024-02-26T15:01:41;5.50;;;4.93;;
18905;SDS011;9585;51.018;4.282;2024-02-26T15:04:08;6.05;;;5.03;;
18905;SDS011;9585;51.018;4.282;2024-02-26T15:06:37;5.65;;;4.95;;
18905;SDS011;9585;51.018;4.282;2024-02-26T15:09:06;5.32;;;4.80;;
18905;SDS011;9585;51.018;4.282;2024-02-26T15:11:37;4.60;;;4.10;;
18905;SDS011;9585;51.018;4.282;2024-02-26T15:14:05;5.75;;;4.78;;
18905;SDS011;9585;51.018;4.282;2024-02-26T15:16:33;4.57;;;3.70;;
18905;SDS011;9585;51.018;4.282;2024-02-26T15:19:01;4.17;;;3.70;;
18905;SDS011;9585;51.018;4.282;2024-02-26T15:21:29;5.13;;;3.67;;
18905;SDS011;9585;51.018;4.282;2024-02-26T15:23:56;4.80;;;4.03;;
18905;SDS011;9585;51.018;4.282;2024-02-26T15:26:25;4.20;;;3.80;;
18905;SDS011;9585;51.018;4.282;2024-02-26T15:28:53;4.90;;;4.40;;
18905;SDS011;9585;51.018;4.282;2024-02-26T15:31:21;6.78;;;5.50;;
18905;SDS011;9585;51.018;4.282;2024-02-26T15:33:49;6.45;;;4.90;;